Time;durP1;ratioP1;P1;durP2;ratioP2;P2;SDS_P1;SDS_P2;PMS_P1;PMS_P2;Temp;Humidity;BMP_temperature;BMP_pressure;BME280_temperature;BME280_humidity;BME280_pressure;Samples;Min_cycle;Max_cycle;Signal;HPM_P1;HPM_P2
2022/12/16 00:01:41;;;;;;;68.53;47.37;;;3.00;99.90;;;;;;6143288;28;20539;-62
2022/12/16 00:04:44;;;;;;;71.07;46.80;;;3.00;99.90;;;;;;6156977;28;20482;-62
2022/12/16 00:07:48;;;;;;;73.17;46.20;;;3.00;99.90;;;;;;6155408;28;20537;-62
2022/12/16 00:10:57;;;;;;;74.17;46.00;;;3.00;99.90;;;;;;6155843;28;20479;-62
2022/12/16 00:14:00;;;;;;;69.67;45.87;;;3.00;99.90;;;;;;6155269;28;20904;-62
2022/12/16 00:17:03;;;;;;;66.57;47.53;;;3.10;99.90;;;;;;6140724;28;20626;-63
2022/12/16 00:20:08;;;;;;;66.60;49.57;;;3.20;99.90;;;;;;6137482;28;20447;-62
2022/12/16 00:23:11;;;;;;;74.73;48.67;;;3.20;99.90;;;;;;6143461;28;20463;-62
2022/12/16 00:26:16;;;;;;;60.80;42.10;;;3.30;99.90;;;;;;6141714;28;20805;-62
2022/12/16 00:29:19;;;;;;;70.10;47.87;;;3.30;99.90;;;;;;6136853;28;20475;-62
2022/12/16 00:32:22;;;;;;;64.40;45.77;;;3.30;99.90;;;;;;6142578;28;20479;-62
2022/12/16 00:35:26;;;;;;;69.03;44.80;;;3.30;99.90;;;;;;6138843;28;20788;-63
2022/12/16 00:38:29;;;;;;;72.90;46.70;;;3.30;99.90;;;;;;6135997;28;20546;-63
2022/12/16 00:41:33;;;;;;;70.47;45.97;;;3.30;99.90;;;;;;6140827;28;20975;-62
2022/12/16 00:44:36;;;;;;;68.67;45.10;;;3.30;99.90;;;;;;6135883;28;20519;-62
2022/12/16 00:47:40;;;;;;;65.57;46.27;;;3.30;99.90;;;;;;6131179;28;20483;-62
2022/12/16 00:50:49;;;;;;;64.50;46.60;;;3.20;99.90;;;;;;6131334;28;20483;-62
2022/12/16 00:53:53;;;;;;;73.43;45.73;;;3.10;99.90;;;;;;6131220;28;20487;-62
2022/12/16 00:56:58;;;;;;;74.73;48.30;;;3.10;99.90;;;;;;6169797;28;20482;-62
2022/12/16 01:00:03;;;;;;;82.70;48.10;;;3.00;99.90;;;;;;6178847;28;20482;-62
2022/12/16 01:03:07;;;;;;;71.07;47.77;;;3.00;99.90;;;;;;6179075;28;20489;-62
2022/12/16 01:06:13;;;;;;;72.87;47.93;;;3.00;99.90;;;;;;6178500;28;20804;-62
2022/12/16 01:09:16;;;;;;;74.33;47.50;;;3.00;99.90;;;;;;6178378;28;20589;-62
2022/12/16 01:12:20;;;;;;;69.23;46.70;;;3.00;99.90;;;;;;6178036;28;20949;-62
2022/12/16 01:15:23;;;;;;;74.53;46.23;;;3.10;99.90;;;;;;6178291;28;20474;-62
2022/12/16 01:18:27;;;;;;;66.67;43.80;;;3.10;99.90;;;;;;6177685;28;20485;-62
2022/12/16 01:21:30;;;;;;;70.37;43.77;;;3.10;99.90;;;;;;6173635;28;20484;-62
2022/12/16 01:24:33;;;;;;;66.77;45.90;;;3.00;99.90;;;;;;6177988;28;20493;-62
2022/12/16 01:27:38;;;;;;;72.93;46.00;;;3.10;99.90;;;;;;6177907;28;20985;-63
2022/12/16 01:30:41;;;;;;;67.10;44.20;;;3.10;99.90;;;;;;6177552;28;20970;-63
2022/12/16 01:33:44;;;;;;;73.50;44.67;;;3.20;99.90;;;;;;6177640;28;20470;-63
2022/12/16 01:36:47;;;;;;;71.33;45.60;;;3.20;99.90;;;;;;6170341;28;20506;-63
2022/12/16 01:39:51;;;;;;;70.43;47.17;;;3.30;99.90;;;;;;6146726;28;20594;-63
2022/12/16 01:42:55;;;;;;;70.10;43.80;;;3.20;99.90;;;;;;6137263;28;20546;-63
2022/12/16 01:46:03;;;;;;;72.50;45.33;;;3.20;99.90;;;;;;6134826;28;20480;-63
2022/12/16 01:49:11;;;;;;;68.57;47.57;;;3.20;99.90;;;;;;6129579;28;20530;-63
2022/12/16 01:52:18;;;;;;;71.90;46.13;;;3.20;99.90;;;;;;6143391;28;20530;-62
2022/12/16 01:55:24;;;;;;;72.43;48.33;;;3.10;99.90;;;;;;6145591;28;20486;-63
2022/12/16 01:58:34;;;;;;;74.13;47.10;;;3.20;99.90;;;;;;6143865;28;20475;-62
2022/12/16 02:01:37;;;;;;;70.37;44.77;;;3.20;99.90;;;;;;6141255;28;20487;-62
2022/12/16 02:05:19;;;;;;;68.83;46.87;;;3.20;99.90;;;;;;6140816;28;20904;-63
2022/12/16 02:08:11;;;;;;;70.33;43.17;;;3.10;99.90;;;;;;6139490;28;20468;-63
2022/12/16 02:11:39;;;;;;;64.70;47.90;;;3.10;99.90;;;;;;6139949;29;20472;-63
2022/12/16 02:15:03;;;;;;;69.43;48.40;;;3.20;99.90;;;;;;6149181;28;20487;-63
2022/12/16 02:18:18;;;;;;;68.97;46.97;;;3.10;99.90;;;;;;6153144;28;20483;-62
2022/12/16 02:21:40;;;;;;;70.03;45.67;;;3.20;99.90;;;;;;6152798;28;20475;-63
2022/12/16 02:25:10;;;;;;;71.50;43.30;;;3.10;99.90;;;;;;6153133;28;20483;-63
2022/12/16 02:28:28;;;;;;;69.80;45.07;;;3.10;99.90;;;;;;6152582;28;20815;-63
2022/12/16 02:31:37;;;;;;;74.70;47.00;;;3.10;99.90;;;;;;6152579;28;20972;-62
2022/12/16 02:34:52;;;;;;;67.23;44.77;;;3.20;99.90;;;;;;6152698;28;20479;-62
2022/12/16 02:38:08;;;;;;;74.43;45.43;;;3.20;99.90;;;;;;6152192;28;20459;-63
2022/12/16 02:41:17;;;;;;;74.60;47.10;;;3.20;99.90;;;;;;6152315;28;20475;-62
2022/12/16 02:44:26;;;;;;;69.33;45.77;;;3.20;99.90;;;;;;6152000;28;20938;-62
2022/12/16 02:47:31;;;;;;;74.10;47.77;;;3.20;99.90;;;;;;6152306;28;20960;-62
2022/12/16 02:50:39;;;;;;;73.87;47.50;;;3.20;99.90;;;;;;6152095;28;20489;-62
2022/12/16 02:53:44;;;;;;;71.50;47.80;;;3.20;99.90;;;;;;6151987;28;20495;-62
2022/12/16 02:57:00;;;;;;;74.40;46.57;;;3.30;99.90;;;;;;6152254;28;20470;-62
2022/12/16 03:00:06;;;;;;;72.03;47.27;;;3.30;99.90;;;;;;6151514;28;20971;-62
2022/12/16 03:03:16;;;;;;;64.93;42.13;;;3.40;99.90;;;;;;6151207;28;20478;-62
2022/12/16 03:06:21;;;;;;;74.57;46.17;;;3.40;99.90;;;;;;6152231;28;20633;-63
2022/12/16 03:09:29;;;;;;;63.40;44.10;;;3.40;99.90;;;;;;6152008;28;20471;-62
2022/12/16 03:12:34;;;;;;;72.17;46.07;;;3.40;99.90;;;;;;6155274;28;20494;-63
2022/12/16 03:15:40;;;;;;;73.83;46.53;;;3.40;99.90;;;;;;6156694;28;20490;-62
2022/12/16 03:18:47;;;;;;;67.60;44.63;;;3.40;99.90;;;;;;6156741;28;20509;-62
2022/12/16 03:21:59;;;;;;;66.10;44.17;;;3.40;99.90;;;;;;6156877;28;20482;-62
2022/12/16 03:25:02;;;;;;;61.17;43.50;;;3.30;99.90;;;;;;6156411;28;20955;-62
2022/12/16 03:28:16;;;;;;;68.77;44.73;;;3.20;99.90;;;;;;6156527;28;20474;-63
2022/12/16 03:31:28;;;;;;;72.50;46.10;;;3.20;99.90;;;;;;6147697;28;20935;-62
2022/12/16 03:34:39;;;;;;;79.30;47.80;;;3.20;99.90;;;;;;6156306;28;20486;-62
2022/12/16 03:37:45;;;;;;;75.50;49.83;;;3.10;99.90;;;;;;6156467;28;20479;-61
2022/12/16 03:40:49;;;;;;;72.53;47.70;;;3.10;99.90;;;;;;6156209;28;20470;-61
2022/12/16 03:43:53;;;;;;;72.00;48.80;;;3.00;99.90;;;;;;6156466;28;20470;-61
2022/12/16 03:46:56;;;;;;;68.17;44.73;;;2.90;99.90;;;;;;6156012;28;20450;-61
2022/12/16 03:50:01;;;;;;;71.53;47.50;;;2.90;99.90;;;;;;6156226;28;20450;-61
2022/12/16 03:53:05;;;;;;;70.77;47.27;;;3.00;99.90;;;;;;6155957;28;20494;-61
2022/12/16 03:56:08;;;;;;;71.27;48.40;;;3.00;99.90;;;;;;6168886;28;20442;-62
2022/12/16 03:59:11;;;;;;;74.00;46.23;;;2.90;99.90;;;;;;6179479;28;20481;-62
2022/12/16 04:02:14;;;;;;;66.47;47.07;;;2.90;99.90;;;;;;6179673;28;20565;-62
2022/12/16 04:05:19;;;;;;;72.43;48.73;;;2.90;99.90;;;;;;6179495;28;20486;-62
2022/12/16 04:08:23;;;;;;;69.17;46.03;;;2.90;99.90;;;;;;6180027;28;20473;-62
2022/12/16 04:24:58;;;;;;;73.20;48.73;;;3.00;99.90;;;;;;6178129;28;20805;-62
2022/12/16 04:28:02;;;;;;;67.50;46.60;;;3.00;99.90;;;;;;6179700;28;20958;-62
2022/12/16 04:31:05;;;;;;;70.60;46.03;;;2.90;99.90;;;;;;6178902;28;20981;-63
2022/12/16 04:34:26;;;;;;;73.83;47.00;;;3.00;99.90;;;;;;6179030;28;20985;-62
